Gipsyaalborg — XPC1236 — position and weather

sailwx.info

Track history (hours):
 
Tides and Currents Weather Stations Pressure Air Temp Water Temp Dewpoint Dewpoint Depression Visibility Wind Speed Wind Dir Waves Ship Positions

Gipsyaalborg

Last reported at 2018-Jul-19 11:23 UTC. Time now 2018-Jul-20 14:18 UTC.
Position N 37°58' W 000°41'.

Length 12 m.

Type: Pleasure craft. MMSI: 219012713.

Date/timePositionNaut miles runAvg speedWind from/ knotsBaromVisibWave heightAir tempDewpointWater temp
2018-Jul-19 11:23N 37°58' W 000°41'1 1.4
2018-Jul-19 11:00N 37°58' W 000°41'3 5.5
2018-Jul-19 10:30N 37°55' W 000°42'3 5.2
2018-Jul-19 10:00N 37°53' W 000°42'3 5.0
2018-Jul-19 09:30N 37°50' W 000°42'3 5.1
2018-Jul-19 09:00N 37°48' W 000°43'3 5.1
2018-Jul-19 08:30N 37°45' W 000°43'1 2.3
2018-Jul-19 08:00N 37°45' W 000°44'0 0.7
2018-Jul-19 07:25N 37°45' W 000°45'0 0.0
2018-Jul-17 17:57N 37°45' W 000°45'0 0.1
2018-Jul-17 10:40N 37°45' W 000°45'0 0.0
2018-Jul-17 10:28N 37°45' W 000°45'1 1.9
2018-Jul-17 09:56N 37°45' W 000°44'2 3.9
2018-Jul-17 09:30N 37°43' W 000°43'3 5.6
2018-Jul-17 08:59N 37°40' W 000°42'5 4.5
2018-Jul-17 07:51N 37°35' W 000°44'2 5.3
2018-Jul-17 07:29N 37°34' W 000°45'4 5.4
2018-Jul-17 06:43N 37°33' W 000°50'  
Track history (hours):
 
Tides and Currents Weather Stations Pressure Air Temp Water Temp Dewpoint Dewpoint Depression Visibility Wind Speed Wind Dir Waves Ship Positions

Gipsyaalborg

Last reported at 2018-Jul-19 11:23 UTC. Time now 2018-Jul-20 14:18 UTC.
Position N 37°58' W 000°41'.

Length 12 m.

Type: Pleasure craft. MMSI: 219012713.

Date/timePositionNaut miles runAvg speedWind from/ knotsBaromVisibWave heightAir tempDewpointWater temp
2018-Jul-19 11:23N 37°58' W 000°41'1 1.4
2018-Jul-19 11:00N 37°58' W 000°41'3 5.5
2018-Jul-19 10:30N 37°55' W 000°42'3 5.2
2018-Jul-19 10:00N 37°53' W 000°42'3 5.0
2018-Jul-19 09:30N 37°50' W 000°42'3 5.1
2018-Jul-19 09:00N 37°48' W 000°43'3 5.1
2018-Jul-19 08:30N 37°45' W 000°43'1 2.3
2018-Jul-19 08:00N 37°45' W 000°44'0 0.7
2018-Jul-19 07:25N 37°45' W 000°45'0 0.0
2018-Jul-17 17:57N 37°45' W 000°45'0 0.1
2018-Jul-17 10:40N 37°45' W 000°45'0 0.0
2018-Jul-17 10:28N 37°45' W 000°45'1 1.9
2018-Jul-17 09:56N 37°45' W 000°44'2 3.9
2018-Jul-17 09:30N 37°43' W 000°43'3 5.6
2018-Jul-17 08:59N 37°40' W 000°42'5 4.5
2018-Jul-17 07:51N 37°35' W 000°44'2 5.3
2018-Jul-17 07:29N 37°34' W 000°45'4 5.4
2018-Jul-17 06:43N 37°33' W 000°50'  

Dump ship's entire track history